createdAt,value
2023-02-23T00:01:03.052Z,23.67
2023-02-23T00:19:27.211Z,6.67
2023-02-23T00:22:21.559Z,5.00
2023-02-23T00:28:21.230Z,11.00
2023-02-23T00:57:38.844Z,7.00
2023-02-23T01:08:55.153Z,8.00
2023-02-23T01:42:26.177Z,1.00
2023-02-23T01:44:53.018Z,1.33
2023-02-23T01:47:20.720Z,2.00
2023-02-23T01:49:48.104Z,2.00
2023-02-23T01:52:17.784Z,1.67
2023-02-23T01:54:52.218Z,4.33
2023-02-23T01:57:25.322Z,4.00
2023-02-23T01:59:52.808Z,7.00
2023-02-23T02:02:23.648Z,8.00
2023-02-23T02:04:52.527Z,11.67
2023-02-23T02:07:25.190Z,10.33
2023-02-23T02:10:21.835Z,12.67
2023-02-23T02:13:07.686Z,15.00
2023-02-23T02:16:00.410Z,10.00
2023-02-23T02:18:58.801Z,4.00
2023-02-23T02:22:11.059Z,5.67
2023-02-23T02:25:00.493Z,4.00
2023-02-23T02:28:04.544Z,1.67
2023-02-23T02:31:02.313Z,1.00
2023-02-23T02:34:08.848Z,2.00
2023-02-23T02:37:12.419Z,2.00
2023-02-23T02:39:55.137Z,2.00
2023-02-23T02:42:40.408Z,1.00
2023-02-23T02:45:40.471Z,4.00
2023-02-23T02:48:31.309Z,3.33
2023-02-23T02:51:04.714Z,7.00
2023-02-23T02:53:41.861Z,5.67
2023-02-23T02:56:10.231Z,5.67
2023-02-23T02:58:39.240Z,4.67
2023-02-23T03:01:27.804Z,9.33
2023-02-23T03:04:13.087Z,8.00
2023-02-23T03:07:17.866Z,8.00
2023-02-23T03:10:19.846Z,7.67
2023-02-23T03:13:19.505Z,4.00
2023-02-23T03:16:27.950Z,4.00
2023-02-23T03:19:45.045Z,11.00
2023-02-23T03:22:52.553Z,14.67
2023-02-23T03:25:43.370Z,15.33
2023-02-23T03:28:50.011Z,10.00
2023-02-23T03:31:45.071Z,10.00
2023-02-23T03:34:41.393Z,10.67
2023-02-23T03:37:45.460Z,13.67
2023-02-23T03:40:50.146Z,11.00
2023-02-23T03:43:45.199Z,8.00
2023-02-23T03:46:33.470Z,8.00
2023-02-23T03:49:22.691Z,10.00
2023-02-23T03:52:14.798Z,10.67
2023-02-23T03:55:08.323Z,7.00
2023-02-23T03:57:56.982Z,7.00
2023-02-23T04:00:53.246Z,5.00
2023-02-23T04:03:40.734Z,7.67
2023-02-23T04:06:30.324Z,4.00
2023-02-23T04:09:20.158Z,8.00
2023-02-23T04:12:42.544Z,10.00
2023-02-23T04:15:15.681Z,5.00
2023-02-23T04:17:43.514Z,4.67
2023-02-23T04:20:14.053Z,4.67
2023-02-23T04:22:40.969Z,4.00
2023-02-23T04:25:09.224Z,1.00
2023-02-23T04:27:36.893Z,4.00
2023-02-23T04:30:04.598Z,11.00
2023-02-23T04:32:31.808Z,14.00
2023-02-23T04:34:58.904Z,4.67
2023-02-23T04:37:25.842Z,18.00
2023-02-23T04:39:52.839Z,19.00
2023-02-23T04:42:20.148Z,12.00
2023-02-23T04:44:47.289Z,17.67
2023-02-23T04:47:17.592Z,12.00
2023-02-23T04:49:45.049Z,10.00
2023-02-23T04:52:12.443Z,7.33
2023-02-23T04:54:40.271Z,8.67
2023-02-23T04:57:07.558Z,15.33
2023-02-23T04:59:34.554Z,15.00
2023-02-23T05:02:01.752Z,20.67
2023-02-23T05:04:29.091Z,15.00
2023-02-23T05:06:56.055Z,13.67
2023-02-23T05:09:22.972Z,11.00
2023-02-23T05:11:50.683Z,17.33
2023-02-23T05:14:17.615Z,20.67
2023-02-23T05:16:44.611Z,17.00
2023-02-23T05:19:12.260Z,13.00
2023-02-23T05:21:39.379Z,10.00
2023-02-23T05:24:06.515Z,4.33
2023-02-23T05:26:34.038Z,2.00
2023-02-23T05:29:01.216Z,4.00
2023-02-23T05:31:28.998Z,4.00
2023-02-23T05:33:55.965Z,3.33
2023-02-23T05:36:23.041Z,10.33
2023-02-23T05:38:50.072Z,11.00
2023-02-23T05:41:19.978Z,13.00
2023-02-23T05:43:51.357Z,10.33
2023-02-23T05:46:22.661Z,11.00
2023-02-23T05:48:50.027Z,11.00
2023-02-23T05:51:17.785Z,10.00
2023-02-23T05:53:46.930Z,10.00
2023-02-23T05:56:21.048Z,5.67
2023-02-23T05:58:52.917Z,4.33
2023-02-23T06:01:21.944Z,11.00
2023-02-23T06:03:49.671Z,8.67
2023-02-23T06:06:17.990Z,7.00
2023-02-23T06:08:45.482Z,7.67
2023-02-23T06:11:12.516Z,4.33
2023-02-23T06:13:39.472Z,6.33
2023-02-23T06:16:07.035Z,3.33
2023-02-23T06:18:34.463Z,2.67
2023-02-23T06:21:02.427Z,7.00
2023-02-23T06:23:29.911Z,7.00
2023-02-23T06:25:58.292Z,7.00
2023-02-23T06:28:25.774Z,4.67
2023-02-23T06:30:54.548Z,5.00
2023-02-23T06:33:22.488Z,7.67
2023-02-23T06:35:49.772Z,5.00
2023-02-23T06:38:16.994Z,8.00
2023-02-23T06:40:44.006Z,11.00
2023-02-23T06:43:11.709Z,9.00
2023-02-23T06:45:38.910Z,8.00
2023-02-23T06:48:06.091Z,5.00
2023-02-23T06:50:34.019Z,9.00
2023-02-23T06:53:00.990Z,8.00
2023-02-23T06:55:27.907Z,9.00
2023-02-23T06:57:54.853Z,7.33
2023-02-23T07:00:22.340Z,21.67
2023-02-23T07:02:49.281Z,18.33
2023-02-23T07:05:16.504Z,24.33
2023-02-23T07:07:44.241Z,24.33
2023-02-23T07:10:11.896Z,25.33
2023-02-23T07:12:39.129Z,23.67
2023-02-23T07:15:06.659Z,26.67
2023-02-23T07:17:33.713Z,20.00
2023-02-23T07:20:00.641Z,29.33
2023-02-23T07:22:30.527Z,22.00
2023-02-23T07:24:58.053Z,22.67
2023-02-23T07:27:25.651Z,14.33
2023-02-23T07:29:52.726Z,25.33
2023-02-23T07:32:19.749Z,23.00
2023-02-23T07:34:48.026Z,26.33
2023-02-23T07:37:15.795Z,25.33
2023-02-23T07:39:42.949Z,24.00
2023-02-23T07:42:10.085Z,25.67
2023-02-23T07:44:38.378Z,19.33
2023-02-23T07:47:06.256Z,26.33
2023-02-23T07:49:34.470Z,22.33
2023-02-23T07:52:01.402Z,27.00
2023-02-23T07:54:28.441Z,26.33
2023-02-23T07:56:55.404Z,26.00
2023-02-23T07:59:22.367Z,27.00
2023-02-23T08:01:49.342Z,26.33
2023-02-23T08:04:16.290Z,29.00
2023-02-23T08:06:43.212Z,26.33
2023-02-23T08:09:12.250Z,20.67
2023-02-23T08:11:39.795Z,25.67
2023-02-23T08:14:06.688Z,20.67
2023-02-23T08:16:34.242Z,25.00
2023-02-23T08:19:01.609Z,25.67
2023-02-23T08:21:29.749Z,23.00
2023-02-23T08:23:58.416Z,26.00
2023-02-23T08:26:25.739Z,19.67
2023-02-23T08:28:53.772Z,22.00
2023-02-23T08:31:24.427Z,27.33
2023-02-23T08:33:52.764Z,28.00
2023-02-23T08:36:21.123Z,25.00
2023-02-23T08:38:48.509Z,23.33
2023-02-23T08:41:15.519Z,23.00
2023-02-23T08:43:44.088Z,19.00
2023-02-23T08:46:12.994Z,19.00
2023-02-23T08:48:40.846Z,22.67
2023-02-23T08:51:09.035Z,18.25
2023-02-23T08:53:36.551Z,19.00
2023-02-23T08:56:06.604Z,20.00
2023-02-23T08:58:35.229Z,22.33
2023-02-23T09:01:03.164Z,25.00
2023-02-23T09:03:30.951Z,25.00
2023-02-23T09:06:09.090Z,22.25
2023-02-23T09:08:36.263Z,21.00
2023-02-23T09:11:03.222Z,16.75
2023-02-23T09:13:30.327Z,5.00
2023-02-23T09:15:57.291Z,14.00
2023-02-23T09:18:29.767Z,11.75
2023-02-23T09:20:57.389Z,10.75
2023-02-23T09:23:28.438Z,10.50
2023-02-23T09:25:55.386Z,12.25
2023-02-23T09:28:22.438Z,17.00
2023-02-23T09:30:49.463Z,12.00
2023-02-23T09:33:17.449Z,18.25
2023-02-23T09:35:44.369Z,18.25
2023-02-23T09:38:11.268Z,13.25
2023-02-23T09:40:50.274Z,12.25
2023-02-23T09:43:20.036Z,12.00
2023-02-23T09:45:53.109Z,14.75
2023-02-23T09:48:23.761Z,13.50
2023-02-23T09:50:53.590Z,11.00
2023-02-23T09:53:33.423Z,8.75
2023-02-23T09:56:04.523Z,7.25
2023-02-23T09:58:34.302Z,7.00
2023-02-23T10:01:26.049Z,6.75
2023-02-23T10:03:57.936Z,8.00
2023-02-23T10:06:24.829Z,8.75
2023-02-23T10:09:16.225Z,14.75
2023-02-23T10:11:56.566Z,12.75
2023-02-23T10:14:30.859Z,16.75
2023-02-23T10:17:10.136Z,8.00
2023-02-23T10:20:02.280Z,9.00
2023-02-23T10:22:30.226Z,15.50
2023-02-23T10:25:05.069Z,7.25
2023-02-23T10:27:51.524Z,9.00
2023-02-23T10:30:27.445Z,8.50
2023-02-23T10:33:32.124Z,8.00
2023-02-23T10:36:13.749Z,9.75
2023-02-23T10:38:41.361Z,12.75
2023-02-23T10:41:13.085Z,8.50
2023-02-23T10:43:41.720Z,5.75
2023-02-23T10:46:18.826Z,6.25
2023-02-23T10:48:47.864Z,7.00
2023-02-23T10:51:27.285Z,7.00
2023-02-23T10:53:54.231Z,6.00
2023-02-23T10:56:23.207Z,4.00
2023-02-23T10:58:56.776Z,3.00
2023-02-23T11:02:00.742Z,7.25
2023-02-23T11:04:31.285Z,4.00
2023-02-23T11:07:16.417Z,5.00
2023-02-23T11:09:47.392Z,4.00
2023-02-23T11:12:23.053Z,6.50
2023-02-23T11:14:52.330Z,6.25
2023-02-23T11:17:30.380Z,8.00
2023-02-23T11:20:19.063Z,10.00
2023-02-23T11:22:46.442Z,9.00
2023-02-23T11:25:38.931Z,14.50
2023-02-23T11:28:05.909Z,10.25
2023-02-23T11:30:38.340Z,8.00
2023-02-23T11:33:11.368Z,9.00
2023-02-23T11:35:38.830Z,7.50
2023-02-23T11:38:25.280Z,7.75
2023-02-23T11:41:05.728Z,8.00
2023-02-23T11:43:32.701Z,7.50
2023-02-23T11:46:02.606Z,7.00
2023-02-23T11:48:37.907Z,4.75
2023-02-23T11:51:05.514Z,4.75
2023-02-23T11:53:36.765Z,5.00
2023-02-23T11:56:11.299Z,7.00
2023-02-23T11:58:50.150Z,8.25
2023-02-23T12:01:23.742Z,7.00
2023-02-23T12:03:57.466Z,8.00
2023-02-23T12:06:34.298Z,11.75
2023-02-23T12:09:27.167Z,14.75
2023-02-23T12:12:02.568Z,11.75
2023-02-23T12:14:53.611Z,8.00
2023-02-23T12:17:26.910Z,10.00
2023-02-23T12:20:11.358Z,14.00
2023-02-23T12:22:51.802Z,10.00
2023-02-23T12:25:28.581Z,9.00
2023-02-23T12:28:18.271Z,6.00
2023-02-23T12:30:55.205Z,4.00
2023-02-23T12:33:30.346Z,11.25
2023-02-23T12:36:04.345Z,6.00
2023-02-23T12:38:48.946Z,5.00
2023-02-23T12:41:30.721Z,3.25
2023-02-23T12:44:03.544Z,4.25
2023-02-23T12:46:47.744Z,9.25
2023-02-23T12:49:33.527Z,8.00
2023-02-23T12:52:11.740Z,7.50
2023-02-23T12:54:38.649Z,6.25
2023-02-23T12:57:21.353Z,5.50
2023-02-23T12:59:57.533Z,6.00
2023-02-23T13:02:41.536Z,5.00
2023-02-23T13:05:34.717Z,5.00
2023-02-23T13:08:22.261Z,5.00
2023-02-23T13:11:11.531Z,3.25
2023-02-23T13:13:44.158Z,4.00
2023-02-23T13:16:31.258Z,4.00
2023-02-23T13:19:16.632Z,8.25
2023-02-23T13:21:54.390Z,9.50
2023-02-23T13:24:30.302Z,8.75
2023-02-23T13:27:02.068Z,9.00
2023-02-23T13:29:40.210Z,7.00
2023-02-23T13:32:18.089Z,6.50
2023-02-23T13:35:01.043Z,4.00
2023-02-23T13:37:41.291Z,8.00
2023-02-23T13:40:26.545Z,9.50
2023-02-23T13:43:18.023Z,9.50
2023-02-23T13:45:54.473Z,7.25
2023-02-23T13:48:33.397Z,5.25
2023-02-23T13:51:03.023Z,7.00
2023-02-23T13:53:47.237Z,10.00
2023-02-23T13:56:20.316Z,10.25
2023-02-23T13:59:12.169Z,11.25
2023-02-23T14:01:43.981Z,8.75
2023-02-23T14:04:21.204Z,8.00
2023-02-23T14:07:11.444Z,7.00
2023-02-23T14:09:44.923Z,9.00
2023-02-23T14:12:13.283Z,10.00
2023-02-23T14:14:45.134Z,8.25
2023-02-23T14:17:14.949Z,9.00
2023-02-23T14:19:43.381Z,9.25
2023-02-23T14:22:18.774Z,9.00
2023-02-23T14:24:45.729Z,13.25
2023-02-23T14:27:41.138Z,10.75
2023-02-23T14:30:11.850Z,11.00
2023-02-23T14:32:41.510Z,7.75
2023-02-23T14:35:34.132Z,6.25
2023-02-23T14:38:47.512Z,9.50
2023-02-23T14:41:15.441Z,5.00
2023-02-23T14:43:45.522Z,6.00
2023-02-23T14:46:18.814Z,5.75
2023-02-23T14:49:10.585Z,5.00
2023-02-23T14:51:49.394Z,5.50
2023-02-23T14:54:30.715Z,4.00
2023-02-23T14:57:00.036Z,5.00
2023-02-23T14:59:39.363Z,4.00
2023-02-23T15:02:31.361Z,5.50
2023-02-23T15:04:58.437Z,9.75
2023-02-23T15:07:41.942Z,8.75
2023-02-23T15:10:11.566Z,11.00
2023-02-23T15:12:39.283Z,5.25
2023-02-23T15:15:21.086Z,3.00
2023-02-23T15:17:52.931Z,7.00
2023-02-23T15:20:28.983Z,9.25
2023-02-23T15:22:59.453Z,9.00
2023-02-23T15:25:37.689Z,8.00
2023-02-23T15:28:25.493Z,8.00
2023-02-23T15:30:55.523Z,13.75
2023-02-23T15:33:28.814Z,11.25
2023-02-23T15:36:01.070Z,15.75
2023-02-23T15:38:43.448Z,16.00
2023-02-23T15:41:29.725Z,18.00
2023-02-23T15:44:03.854Z,19.00
2023-02-23T15:46:32.924Z,17.25
2023-02-23T15:49:03.746Z,17.25
2023-02-23T15:51:38.529Z,15.00
2023-02-23T15:54:16.831Z,11.00
2023-02-23T15:56:47.064Z,13.00
2023-02-23T15:59:21.113Z,9.00
2023-02-23T16:01:48.226Z,8.25
2023-02-23T16:04:15.245Z,14.00
2023-02-23T16:07:06.465Z,17.00
2023-02-23T16:09:34.396Z,13.75
2023-02-23T16:12:04.873Z,13.75
2023-02-23T16:14:45.271Z,13.00
2023-02-23T16:17:33.600Z,20.50
2023-02-23T16:20:13.888Z,23.00
2023-02-23T16:22:46.197Z,23.50
2023-02-23T16:25:16.995Z,27.00
2023-02-23T16:27:45.997Z,28.00
2023-02-23T16:30:23.579Z,27.00
2023-02-23T16:33:11.419Z,25.25
2023-02-23T16:35:50.174Z,22.00
2023-02-23T16:38:26.867Z,23.75
2023-02-23T16:40:54.265Z,24.00
2023-02-23T16:43:21.762Z,22.00
2023-02-23T16:45:48.955Z,18.25
2023-02-23T16:48:17.814Z,15.50
2023-02-23T16:50:46.040Z,9.50
2023-02-23T16:53:13.446Z,13.25
2023-02-23T16:55:47.284Z,9.00
2023-02-23T16:58:19.592Z,14.00
2023-02-23T17:00:46.681Z,13.00
2023-02-23T17:03:21.704Z,11.25
2023-02-23T17:05:49.635Z,10.00
2023-02-23T17:08:16.925Z,9.25
2023-02-23T17:10:47.912Z,7.00
2023-02-23T17:13:25.644Z,6.25
2023-02-23T17:15:56.364Z,7.50
2023-02-23T17:18:29.237Z,6.50
2023-02-23T17:20:58.005Z,5.50
2023-02-23T17:23:27.445Z,7.25
2023-02-23T17:25:56.264Z,4.00
2023-02-23T17:28:23.378Z,5.00
2023-02-23T17:30:50.513Z,5.50
2023-02-23T17:33:17.861Z,3.50
2023-02-23T17:35:47.098Z,8.00
2023-02-23T17:38:15.194Z,8.50
2023-02-23T17:40:42.163Z,7.50
2023-02-23T17:43:09.592Z,4.00
2023-02-23T17:45:36.692Z,8.50
2023-02-23T17:48:03.844Z,3.50
2023-02-23T17:50:31.152Z,7.75
2023-02-23T17:52:58.738Z,6.75
2023-02-23T17:55:26.164Z,5.00
2023-02-23T17:57:53.146Z,7.00
2023-02-23T18:00:21.087Z,4.50
2023-02-23T18:02:48.446Z,5.50
2023-02-23T18:05:16.045Z,3.75
2023-02-23T18:07:44.702Z,6.00
2023-02-23T18:10:14.777Z,8.50
2023-02-23T18:12:42.101Z,3.00
2023-02-23T18:15:09.652Z,5.75
2023-02-23T18:17:37.403Z,6.00
2023-02-23T18:20:07.501Z,4.00
2023-02-23T18:22:34.673Z,7.00
2023-02-23T18:25:01.670Z,5.25
2023-02-23T18:27:28.561Z,7.00
2023-02-23T18:29:55.536Z,2.00
2023-02-23T18:32:22.640Z,7.00
2023-02-23T18:34:49.662Z,8.00
2023-02-23T18:37:21.701Z,8.75
2023-02-23T18:39:52.766Z,4.00
2023-02-23T18:42:19.845Z,9.50
2023-02-23T18:44:46.828Z,9.25
2023-02-23T18:47:13.981Z,12.50
2023-02-23T18:49:40.994Z,11.50
2023-02-23T18:52:09.478Z,11.00
2023-02-23T18:54:38.836Z,14.00
2023-02-23T18:57:05.974Z,11.00
2023-02-23T18:59:33.719Z,14.00
2023-02-23T19:02:03.178Z,12.50
2023-02-23T19:04:30.335Z,0.00
2023-02-23T19:06:57.252Z,11.25
2023-02-23T19:09:24.163Z,11.00
2023-02-23T19:11:51.384Z,9.00
2023-02-23T19:14:22.026Z,9.25
2023-02-23T19:16:50.941Z,8.75
2023-02-23T19:19:18.875Z,10.50
2023-02-23T19:21:45.869Z,10.50
2023-02-23T19:24:12.746Z,11.00
2023-02-23T19:26:40.759Z,10.50
2023-02-23T19:29:08.041Z,11.25
2023-02-23T19:31:35.142Z,11.25
2023-02-23T19:34:05.278Z,12.75
2023-02-23T19:36:34.605Z,13.00
2023-02-23T19:39:11.218Z,11.50
2023-02-23T19:41:40.129Z,14.00
2023-02-23T19:44:07.411Z,12.75
2023-02-23T19:46:35.219Z,10.25
2023-02-23T19:49:02.360Z,11.25
2023-02-23T19:51:29.699Z,12.00
2023-02-23T19:53:58.653Z,12.75
2023-02-23T19:56:28.106Z,14.00
2023-02-23T19:58:57.065Z,13.25
2023-02-23T20:01:27.768Z,16.00
2023-02-23T20:03:55.677Z,16.00
2023-02-23T20:06:25.266Z,15.25
2023-02-23T20:08:52.926Z,14.00
2023-02-23T20:11:20.286Z,16.00
2023-02-23T20:13:47.498Z,13.00
2023-02-23T20:16:15.106Z,16.50
2023-02-23T20:18:42.537Z,14.00
2023-02-23T20:21:12.902Z,9.00
2023-02-23T20:23:41.349Z,8.00
2023-02-23T20:26:12.929Z,15.00
2023-02-23T20:28:40.094Z,14.00
2023-02-23T20:31:21.437Z,12.25
2023-02-23T20:33:51.629Z,9.00
2023-02-23T20:36:21.301Z,13.50
2023-02-23T20:38:48.507Z,12.00
2023-02-23T20:41:15.658Z,12.50
2023-02-23T20:43:44.086Z,9.00
2023-02-23T20:46:17.677Z,11.25
2023-02-23T20:48:45.340Z,13.00
2023-02-23T20:51:19.061Z,9.00
2023-02-23T20:53:48.307Z,14.00
2023-02-23T20:56:18.249Z,10.75
2023-02-23T20:58:45.933Z,12.75
2023-02-23T21:01:20.144Z,14.75
2023-02-23T21:03:47.346Z,11.50
2023-02-23T21:06:16.444Z,13.00
2023-02-23T21:08:46.421Z,12.75
2023-02-23T21:11:13.333Z,15.00
2023-02-23T21:13:40.237Z,15.25
2023-02-23T21:16:07.574Z,12.00
2023-02-23T21:18:34.505Z,13.00
2023-02-23T21:21:09.716Z,11.50
2023-02-23T21:23:39.311Z,12.25
2023-02-23T21:26:14.526Z,10.25
2023-02-23T21:28:46.276Z,6.75
2023-02-23T21:31:14.763Z,10.25
2023-02-23T21:33:43.656Z,11.25
2023-02-23T21:36:12.732Z,8.00
2023-02-23T21:38:44.436Z,10.00
2023-02-23T21:41:13.732Z,9.00
2023-02-23T21:43:42.857Z,9.00
2023-02-23T21:46:15.918Z,11.00
2023-02-23T21:48:43.677Z,13.00
2023-02-23T21:51:13.561Z,10.00
2023-02-23T21:53:41.238Z,12.25
2023-02-23T21:56:16.395Z,9.00
2023-02-23T21:58:48.944Z,10.75
2023-02-23T22:01:30.333Z,11.50
2023-02-23T22:03:58.214Z,9.50
2023-02-23T22:06:28.083Z,9.25
2023-02-23T22:08:55.739Z,7.00
2023-02-23T22:11:25.784Z,7.00
2023-02-23T22:14:01.341Z,9.75
2023-02-23T22:16:31.870Z,10.75
2023-02-23T22:18:58.961Z,8.00
2023-02-23T22:21:25.851Z,8.25
2023-02-23T22:23:54.118Z,7.50
2023-02-23T22:26:21.075Z,4.50
2023-02-23T22:28:48.074Z,7.00
2023-02-23T22:31:15.868Z,9.25
2023-02-23T22:33:44.659Z,8.00
2023-02-23T22:36:14.255Z,7.00
2023-02-23T22:38:42.055Z,9.00
2023-02-23T22:41:11.238Z,7.25
2023-02-23T22:43:42.284Z,9.00
2023-02-23T22:46:09.672Z,7.00
2023-02-23T22:48:37.065Z,5.50
2023-02-23T22:51:04.954Z,8.00
2023-02-23T22:53:32.342Z,4.00
2023-02-23T22:55:59.871Z,3.75
2023-02-23T22:58:26.754Z,8.00
2023-02-23T23:01:06.687Z,6.25
2023-02-23T23:03:35.869Z,7.00
2023-02-23T23:06:08.395Z,4.00
2023-02-23T23:08:38.897Z,2.25
2023-02-23T23:11:09.677Z,5.00
2023-02-23T23:13:45.111Z,2.00
2023-02-23T23:16:28.901Z,4.00
2023-02-23T23:19:04.218Z,4.00
2023-02-23T23:21:33.385Z,3.00
2023-02-23T23:24:06.153Z,3.25
2023-02-23T23:26:36.699Z,3.75
2023-02-23T23:29:05.631Z,4.50
2023-02-23T23:31:35.139Z,3.75
2023-02-23T23:34:06.202Z,4.00
2023-02-23T23:36:37.534Z,2.50
2023-02-23T23:39:06.393Z,3.75
2023-02-23T23:41:35.611Z,3.00
2023-02-23T23:44:05.407Z,3.75
2023-02-23T23:46:38.976Z,3.25
2023-02-23T23:49:11.273Z,3.75
2023-02-23T23:51:45.517Z,3.25
2023-02-23T23:54:15.098Z,7.00
2023-02-23T23:56:43.803Z,6.00
2023-02-23T23:59:17.181Z,7.75
